createdAt,value
2019-02-20T00:01:42.531Z,8.70
2019-02-20T00:04:10.667Z,8.60
2019-02-20T00:06:38.972Z,8.80
2019-02-20T00:09:07.119Z,8.98
2019-02-20T00:11:35.248Z,9.55
2019-02-20T00:14:03.759Z,8.60
2019-02-20T00:16:32.677Z,9.10
2019-02-20T00:19:01.614Z,9.05
2019-02-20T00:21:29.771Z,9.50
2019-02-20T00:23:58.252Z,9.50
2019-02-20T00:26:26.755Z,9.93
2019-02-20T00:28:55.294Z,10.37
2019-02-20T00:31:23.731Z,10.68
2019-02-20T00:33:51.783Z,11.40
2019-02-20T00:36:19.960Z,12.70
2019-02-20T00:38:48.625Z,12.03
2019-02-20T00:41:16.762Z,11.80
2019-02-20T00:43:48.454Z,11.30
2019-02-20T00:46:22.189Z,12.05
2019-02-20T00:48:57.845Z,12.03
2019-02-20T00:51:41.832Z,12.05
2019-02-20T00:54:09.844Z,12.13
2019-02-20T00:56:38.020Z,12.15
2019-02-20T00:59:06.730Z,12.20
2019-02-20T01:01:34.957Z,13.20
2019-02-20T01:04:03.404Z,13.40
2019-02-20T01:06:31.548Z,14.03
2019-02-20T01:09:00.183Z,13.20
2019-02-20T01:11:28.565Z,13.05
2019-02-20T01:13:58.390Z,13.70
2019-02-20T01:16:26.592Z,13.70
2019-02-20T01:18:54.683Z,13.27
2019-02-20T01:21:22.732Z,14.10
2019-02-20T01:23:51.504Z,14.15
2019-02-20T01:26:19.747Z,14.18
2019-02-20T01:28:47.977Z,14.43
2019-02-20T01:31:16.324Z,14.63
2019-02-20T01:33:44.854Z,14.28
2019-02-20T01:36:13.236Z,14.50
2019-02-20T01:38:41.765Z,14.85
2019-02-20T01:41:09.816Z,15.05
2019-02-20T01:43:38.420Z,15.10
2019-02-20T01:46:06.555Z,15.10
2019-02-20T01:48:35.322Z,14.80
2019-02-20T01:51:03.487Z,14.50
2019-02-20T01:53:31.949Z,13.93
2019-02-20T01:56:00.416Z,13.95
2019-02-20T01:58:28.616Z,14.13
2019-02-20T02:00:58.666Z,14.90
2019-02-20T02:03:26.740Z,14.45
2019-02-20T02:05:56.676Z,14.10
2019-02-20T02:08:25.965Z,15.18
2019-02-20T02:10:54.400Z,14.30
2019-02-20T02:13:22.773Z,14.70
2019-02-20T02:15:51.346Z,13.93
2019-02-20T02:18:19.604Z,14.25
2019-02-20T02:20:47.684Z,14.68
2019-02-20T02:23:19.816Z,14.85
2019-02-20T02:25:46.193Z,15.30
2019-02-20T02:28:16.096Z,16.27
2019-02-20T02:30:44.489Z,16.60
2019-02-20T02:33:12.998Z,16.42
2019-02-20T02:35:41.664Z,16.85
2019-02-20T02:38:10.322Z,16.67
2019-02-20T02:40:38.620Z,16.60
2019-02-20T02:43:06.793Z,17.00
2019-02-20T02:45:35.208Z,16.37
2019-02-20T02:48:03.338Z,16.85
2019-02-20T02:50:32.038Z,16.80
2019-02-20T02:53:00.183Z,16.60
2019-02-20T02:55:28.249Z,16.17
2019-02-20T02:57:56.759Z,16.10
2019-02-20T03:00:24.868Z,16.40
2019-02-20T03:02:54.132Z,15.28
2019-02-20T03:05:22.521Z,15.95
2019-02-20T03:07:50.661Z,16.05
2019-02-20T03:10:19.883Z,15.50
2019-02-20T03:12:48.100Z,15.90
2019-02-20T03:15:17.207Z,15.70
2019-02-20T03:17:45.255Z,15.55
2019-02-20T03:20:13.584Z,15.45
2019-02-20T03:22:42.605Z,15.70
2019-02-20T03:25:11.123Z,15.50
2019-02-20T03:27:39.662Z,16.03
2019-02-20T03:30:08.743Z,15.68
2019-02-20T03:32:37.254Z,16.67
2019-02-20T03:35:05.867Z,16.10
2019-02-20T03:37:34.220Z,16.70
2019-02-20T03:40:02.313Z,16.62
2019-02-20T03:42:31.169Z,16.00
2019-02-20T03:44:59.612Z,16.70
2019-02-20T03:47:28.885Z,16.60
2019-02-20T03:49:57.311Z,15.90
2019-02-20T03:52:26.020Z,16.20
2019-02-20T03:54:55.011Z,16.90
2019-02-20T03:57:23.181Z,15.70
2019-02-20T03:59:51.804Z,16.55
2019-02-20T04:02:19.945Z,15.80
2019-02-20T04:04:49.831Z,16.50
2019-02-20T04:07:18.127Z,16.20
2019-02-20T04:09:47.048Z,16.57
2019-02-20T04:12:15.244Z,16.27
2019-02-20T04:14:43.427Z,16.95
2019-02-20T04:17:11.484Z,16.60
2019-02-20T04:19:39.575Z,16.37
2019-02-20T04:22:07.592Z,16.20
2019-02-20T04:24:35.945Z,15.50
2019-02-20T04:27:05.643Z,16.07
2019-02-20T04:29:34.070Z,15.00
2019-02-20T04:32:02.171Z,15.23
2019-02-20T04:34:30.838Z,13.80
2019-02-20T04:36:59.616Z,14.43
2019-02-20T04:39:27.811Z,13.75
2019-02-20T04:41:56.307Z,13.10
2019-02-20T04:44:26.153Z,13.08
2019-02-20T04:46:54.251Z,11.70
2019-02-20T04:49:24.146Z,12.23
2019-02-20T04:51:52.445Z,12.20
2019-02-20T04:54:20.569Z,11.78
2019-02-20T04:56:50.216Z,11.05
2019-02-20T04:59:18.366Z,11.25
2019-02-20T05:01:46.936Z,11.60
2019-02-20T05:04:15.043Z,12.83
2019-02-20T05:06:43.561Z,11.30
2019-02-20T05:09:11.915Z,12.30
2019-02-20T05:11:40.796Z,11.95
2019-02-20T05:14:09.307Z,10.60
2019-02-20T05:16:37.431Z,11.48
2019-02-20T05:19:05.933Z,11.40
2019-02-20T05:21:34.073Z,11.80
2019-02-20T05:24:02.177Z,11.48
2019-02-20T05:26:32.713Z,11.80
2019-02-20T05:29:01.098Z,11.70
2019-02-20T05:31:29.594Z,11.88
2019-02-20T05:33:57.807Z,11.90
2019-02-20T05:36:26.767Z,11.90
2019-02-20T05:38:55.246Z,12.60
2019-02-20T05:41:24.529Z,12.75
2019-02-20T05:43:52.968Z,12.50
2019-02-20T05:46:21.821Z,12.75
2019-02-20T05:48:50.825Z,12.60
2019-02-20T05:51:19.346Z,12.70
2019-02-20T05:53:47.581Z,15.38
2019-02-20T05:56:16.292Z,38.53
2019-02-20T05:58:44.471Z,14.15
2019-02-20T06:01:12.657Z,14.90
2019-02-20T06:03:40.817Z,15.25
2019-02-20T06:06:09.088Z,15.30
2019-02-20T06:08:37.354Z,15.78
2019-02-20T06:11:14.439Z,16.27
2019-02-20T06:13:36.134Z,16.40
2019-02-20T06:16:04.718Z,16.67
2019-02-20T06:18:33.281Z,15.93
2019-02-20T06:21:01.576Z,16.30
2019-02-20T06:23:30.473Z,17.62
2019-02-20T06:25:59.501Z,16.50
2019-02-20T06:28:28.436Z,17.20
2019-02-20T06:30:56.999Z,17.65
2019-02-20T06:33:25.364Z,16.87
2019-02-20T06:35:53.459Z,17.12
2019-02-20T06:38:22.131Z,18.23
2019-02-20T06:40:50.799Z,17.70
2019-02-20T06:43:19.469Z,18.15
2019-02-20T06:45:47.951Z,17.63
2019-02-20T06:48:16.452Z,17.70
2019-02-20T06:50:45.229Z,17.60
2019-02-20T06:53:13.291Z,17.80
2019-02-20T06:55:41.431Z,18.35
2019-02-20T06:58:10.208Z,18.90
2019-02-20T07:00:38.273Z,18.65
2019-02-20T07:03:06.422Z,18.17
2019-02-20T07:05:35.572Z,18.60
2019-02-20T07:08:21.765Z,19.12
2019-02-20T07:10:53.166Z,18.92
2019-02-20T07:13:29.893Z,18.70
2019-02-20T07:16:22.920Z,18.73
2019-02-20T07:18:57.210Z,19.30
2019-02-20T07:21:53.616Z,18.20
2019-02-20T07:24:44.172Z,19.00
2019-02-20T07:27:37.565Z,17.73
2019-02-20T07:30:07.431Z,19.20
2019-02-20T07:32:35.606Z,19.15
2019-02-20T07:35:06.924Z,18.30
2019-02-20T07:37:35.048Z,20.43
2019-02-20T07:40:03.345Z,30.62
2019-02-20T07:42:32.293Z,19.12
2019-02-20T07:45:00.741Z,17.57
2019-02-20T07:47:29.524Z,17.10
2019-02-20T07:49:58.436Z,17.20
2019-02-20T07:52:27.167Z,17.75
2019-02-20T07:54:55.281Z,17.57
2019-02-20T07:57:23.984Z,18.17
2019-02-20T07:59:52.967Z,18.35
2019-02-20T08:02:22.060Z,17.77
2019-02-20T08:04:50.232Z,18.75
2019-02-20T08:07:18.365Z,19.00
2019-02-20T08:09:46.528Z,17.77
2019-02-20T08:12:14.622Z,18.00
2019-02-20T08:14:43.168Z,18.50
2019-02-20T08:17:11.950Z,18.90
2019-02-20T08:19:40.213Z,19.75
2019-02-20T08:22:08.418Z,19.95
2019-02-20T08:24:36.625Z,21.07
2019-02-20T08:27:05.049Z,19.60
2019-02-20T08:29:34.388Z,20.48
2019-02-20T08:32:02.758Z,20.60
2019-02-20T08:34:30.940Z,20.50
2019-02-20T08:36:59.367Z,20.97
2019-02-20T08:39:27.978Z,20.12
2019-02-20T08:41:56.057Z,20.88
2019-02-20T08:44:24.720Z,31.80
2019-02-20T08:46:53.969Z,36.88
2019-02-20T08:49:22.450Z,20.70
2019-02-20T08:51:50.913Z,21.68
2019-02-20T08:54:18.933Z,22.62
2019-02-20T08:56:47.359Z,23.38
2019-02-20T08:59:15.720Z,23.30
2019-02-20T09:01:44.120Z,23.05
2019-02-20T09:04:13.285Z,23.60
2019-02-20T09:06:41.381Z,25.20
2019-02-20T09:09:09.458Z,25.32
2019-02-20T09:11:37.659Z,24.47
2019-02-20T09:14:06.176Z,24.70
2019-02-20T09:16:34.569Z,23.67
2019-02-20T09:19:02.616Z,22.60
2019-02-20T09:21:31.017Z,22.73
2019-02-20T09:23:59.233Z,23.30
2019-02-20T09:26:27.323Z,23.10
2019-02-20T09:28:56.875Z,23.27
2019-02-20T09:31:25.205Z,22.17
2019-02-20T09:33:53.899Z,23.47
2019-02-20T09:36:21.941Z,24.15
2019-02-20T09:38:51.024Z,45.20
2019-02-20T09:41:19.146Z,31.87
2019-02-20T09:43:47.948Z,25.10
2019-02-20T09:46:16.451Z,23.38
2019-02-20T09:48:44.676Z,22.90
2019-02-20T09:51:13.156Z,22.90
2019-02-20T09:53:43.061Z,24.45
2019-02-20T09:56:11.613Z,23.77
2019-02-20T09:58:40.082Z,23.60
2019-02-20T10:01:09.079Z,23.52
2019-02-20T10:03:37.213Z,24.18
2019-02-20T10:06:05.276Z,23.92
2019-02-20T10:08:33.931Z,22.95
2019-02-20T10:11:01.997Z,21.95
2019-02-20T10:13:30.360Z,31.35
2019-02-20T10:15:59.858Z,43.73
2019-02-20T10:18:28.243Z,25.70
2019-02-20T10:20:56.740Z,22.90
2019-02-20T10:23:25.124Z,20.92
2019-02-20T10:26:00.499Z,21.93
2019-02-20T10:28:22.972Z,21.42
2019-02-20T10:30:51.060Z,22.17
2019-02-20T10:33:19.438Z,20.70
2019-02-20T10:35:47.815Z,21.00
2019-02-20T10:38:17.838Z,20.37
2019-02-20T10:40:46.289Z,19.90
2019-02-20T10:43:15.013Z,19.90
2019-02-20T10:45:43.117Z,19.37
2019-02-20T10:48:11.299Z,19.60
2019-02-20T10:50:39.844Z,20.17
2019-02-20T10:53:08.886Z,19.20
2019-02-20T10:55:37.055Z,18.77
2019-02-20T10:58:07.548Z,20.80
2019-02-20T11:00:35.732Z,18.30
2019-02-20T11:03:04.120Z,19.12
2019-02-20T11:05:33.397Z,18.80
2019-02-20T11:08:02.449Z,22.05
2019-02-20T11:10:31.168Z,21.12
2019-02-20T11:13:00.069Z,19.20
2019-02-20T11:15:28.696Z,18.07
2019-02-20T11:17:56.860Z,17.60
2019-02-20T11:20:25.206Z,17.92
2019-02-20T11:22:54.160Z,18.40
2019-02-20T11:25:22.677Z,17.73
2019-02-20T11:27:50.741Z,17.70
2019-02-20T11:30:19.239Z,18.30
2019-02-20T11:32:47.713Z,19.15
2019-02-20T11:35:15.808Z,18.15
2019-02-20T11:37:44.373Z,17.52
2019-02-20T11:40:12.622Z,17.35
2019-02-20T11:42:40.784Z,16.90
2019-02-20T11:45:09.128Z,16.97
2019-02-20T11:47:37.217Z,17.25
2019-02-20T11:50:05.596Z,16.97
2019-02-20T11:52:38.328Z,17.07
2019-02-20T11:55:05.562Z,18.05
2019-02-20T11:57:34.289Z,30.82
2019-02-20T12:00:02.532Z,18.07
2019-02-20T12:02:37.379Z,16.70
2019-02-20T12:05:01.600Z,17.12
2019-02-20T12:07:30.019Z,17.55
2019-02-20T12:09:58.724Z,17.23
2019-02-20T12:12:27.249Z,16.32
2019-02-20T12:14:55.365Z,16.82
2019-02-20T12:17:23.796Z,16.73
2019-02-20T12:19:51.882Z,17.02
2019-02-20T12:22:19.931Z,16.37
2019-02-20T12:24:48.892Z,17.70
2019-02-20T12:27:16.952Z,16.60
2019-02-20T12:29:45.030Z,16.65
2019-02-20T12:32:13.747Z,17.15
2019-02-20T12:34:42.314Z,17.97
2019-02-20T12:37:10.389Z,19.95
2019-02-20T12:39:39.190Z,16.45
2019-02-20T12:42:07.307Z,16.65
2019-02-20T12:44:35.833Z,16.55
2019-02-20T12:47:04.519Z,15.83
2019-02-20T12:49:32.557Z,14.93
2019-02-20T12:52:00.940Z,15.53
2019-02-20T12:54:29.276Z,16.02
2019-02-20T12:56:57.709Z,15.23
2019-02-20T12:59:26.415Z,15.50
2019-02-20T13:01:54.777Z,14.80
2019-02-20T13:04:24.618Z,15.70
2019-02-20T13:06:59.243Z,14.95
2019-02-20T13:09:23.314Z,15.85
2019-02-20T13:11:51.391Z,16.12
2019-02-20T13:14:20.074Z,16.40
2019-02-20T13:16:48.453Z,15.65
2019-02-20T13:19:16.834Z,15.80
2019-02-20T13:21:45.527Z,15.93
2019-02-20T13:24:13.539Z,15.57
2019-02-20T13:26:41.978Z,15.70
2019-02-20T13:29:10.658Z,15.50
2019-02-20T13:31:38.723Z,15.00
2019-02-20T13:34:06.841Z,15.00
2019-02-20T13:36:35.178Z,14.65
2019-02-20T13:39:04.707Z,15.40
2019-02-20T13:41:33.104Z,14.63
2019-02-20T13:44:01.476Z,20.10
2019-02-20T13:46:29.527Z,28.70
2019-02-20T13:48:57.902Z,14.80
2019-02-20T13:51:26.273Z,15.00
2019-02-20T13:53:54.963Z,14.87
2019-02-20T13:56:23.457Z,15.40
2019-02-20T13:58:51.529Z,15.32
2019-02-20T14:01:19.834Z,14.78
2019-02-20T14:03:48.181Z,15.00
2019-02-20T14:06:16.966Z,13.90
2019-02-20T14:08:45.048Z,14.00
2019-02-20T14:11:13.124Z,19.77
2019-02-20T14:13:41.496Z,17.17
2019-02-20T14:16:09.536Z,14.83
2019-02-20T14:18:38.129Z,13.98
2019-02-20T14:21:06.302Z,13.47
2019-02-20T14:23:34.796Z,13.90
2019-02-20T14:26:02.904Z,14.30
2019-02-20T14:28:31.312Z,13.98
2019-02-20T14:30:59.769Z,13.32
2019-02-20T14:33:27.795Z,13.28
2019-02-20T14:35:56.692Z,13.35
2019-02-20T14:38:25.131Z,12.80
2019-02-20T14:40:53.197Z,14.18
2019-02-20T14:43:22.137Z,13.48
2019-02-20T14:45:50.661Z,12.80
2019-02-20T14:48:19.101Z,12.50
2019-02-20T14:50:47.288Z,12.63
2019-02-20T14:53:15.383Z,13.30
2019-02-20T14:55:44.712Z,12.95
2019-02-20T14:58:13.119Z,12.80
2019-02-20T15:00:41.684Z,12.43
2019-02-20T15:03:10.605Z,12.30
2019-02-20T15:05:38.717Z,12.60
2019-02-20T15:08:06.808Z,12.60
2019-02-20T15:10:34.984Z,12.50
2019-02-20T15:13:03.968Z,12.90
2019-02-20T15:15:32.028Z,11.65
2019-02-20T15:18:02.490Z,12.43
2019-02-20T15:20:31.317Z,24.45
2019-02-20T15:22:59.368Z,23.02
2019-02-20T15:25:27.760Z,11.30
2019-02-20T15:27:56.237Z,11.10
2019-02-20T15:30:24.699Z,10.93
2019-02-20T15:32:53.051Z,11.15
2019-02-20T15:35:21.428Z,11.13
2019-02-20T15:37:49.483Z,11.33
2019-02-20T15:40:18.162Z,11.75
2019-02-20T15:42:46.553Z,11.20
2019-02-20T15:45:14.901Z,11.65
2019-02-20T15:47:42.908Z,11.60
2019-02-20T15:50:11.556Z,11.90
2019-02-20T15:52:39.824Z,11.70
2019-02-20T15:55:08.420Z,12.00
2019-02-20T15:57:38.352Z,11.40
2019-02-20T16:00:07.327Z,12.37
2019-02-20T16:02:35.433Z,12.30
2019-02-20T16:05:05.403Z,12.00
2019-02-20T16:07:34.105Z,12.07
2019-02-20T16:10:05.321Z,12.28
2019-02-20T16:12:33.412Z,13.00
2019-02-20T16:15:02.295Z,12.58
2019-02-20T16:17:30.722Z,12.33
2019-02-20T16:19:59.467Z,11.80
2019-02-20T16:22:27.863Z,12.07
2019-02-20T16:24:56.635Z,16.12
2019-02-20T16:27:25.030Z,23.10
2019-02-20T16:29:53.081Z,12.88
2019-02-20T16:32:21.131Z,12.95
2019-02-20T16:34:49.197Z,12.65
2019-02-20T16:37:17.290Z,13.18
2019-02-20T16:39:45.995Z,12.50
2019-02-20T16:42:14.072Z,13.20
2019-02-20T16:44:42.450Z,13.55
2019-02-20T16:47:11.371Z,14.80
2019-02-20T16:49:40.323Z,17.93
2019-02-20T16:52:08.712Z,14.10
2019-02-20T16:54:37.032Z,14.60
2019-02-20T16:57:05.596Z,14.90
2019-02-20T16:59:34.061Z,14.70
2019-02-20T17:02:02.441Z,15.25
2019-02-20T17:04:31.013Z,15.48
2019-02-20T17:06:59.097Z,14.95
2019-02-20T17:09:27.148Z,15.05
2019-02-20T17:11:55.551Z,15.55
2019-02-20T17:14:23.921Z,14.80
2019-02-20T17:16:52.354Z,14.50
2019-02-20T17:19:20.385Z,15.30
2019-02-20T17:21:48.452Z,15.10
2019-02-20T17:24:16.801Z,15.38
2019-02-20T17:26:45.092Z,14.60
2019-02-20T17:29:13.473Z,15.30
2019-02-20T17:31:41.625Z,14.63
2019-02-20T17:34:10.063Z,15.55
2019-02-20T17:36:38.422Z,15.00
2019-02-20T17:39:07.616Z,16.00
2019-02-20T17:41:37.515Z,15.32
2019-02-20T17:44:06.099Z,15.60
2019-02-20T17:46:35.271Z,14.70
2019-02-20T17:49:03.473Z,15.40
2019-02-20T17:51:32.037Z,16.75
2019-02-20T17:54:00.185Z,15.40
2019-02-20T17:56:28.668Z,16.10
2019-02-20T17:58:57.109Z,15.00
2019-02-20T18:01:25.698Z,14.78
2019-02-20T18:03:54.040Z,15.05
2019-02-20T18:06:23.966Z,26.77
2019-02-20T18:08:52.216Z,50.15
2019-02-20T18:11:20.624Z,16.40
2019-02-20T18:13:49.019Z,15.20
2019-02-20T18:16:17.216Z,15.20
2019-02-20T18:18:45.925Z,15.20
2019-02-20T18:21:15.234Z,15.40
2019-02-20T18:23:43.979Z,15.75
2019-02-20T18:26:12.193Z,15.90
2019-02-20T18:28:40.488Z,15.30
2019-02-20T18:31:08.899Z,14.53
2019-02-20T18:33:37.028Z,14.35
2019-02-20T18:36:05.123Z,16.70
2019-02-20T18:38:33.744Z,13.85
2019-02-20T18:41:01.879Z,15.60
2019-02-20T18:43:29.935Z,13.62
2019-02-20T18:45:58.404Z,14.05
2019-02-20T18:48:26.539Z,14.25
2019-02-20T18:50:54.858Z,13.95
2019-02-20T18:53:23.294Z,13.13
2019-02-20T18:55:51.977Z,13.60
2019-02-20T18:58:20.376Z,12.40
2019-02-20T19:00:50.121Z,12.63
2019-02-20T19:03:18.586Z,11.80
2019-02-20T19:05:48.986Z,11.50
2019-02-20T19:08:33.759Z,11.35
2019-02-20T19:11:03.532Z,12.82
2019-02-20T19:13:52.291Z,11.40
2019-02-20T19:16:38.994Z,9.70
2019-02-20T19:19:38.357Z,15.18
2019-02-20T19:22:17.024Z,9.60
2019-02-20T19:25:04.507Z,9.40
2019-02-20T19:27:51.612Z,9.20
2019-02-20T19:30:39.955Z,8.55
2019-02-20T19:33:27.517Z,8.38
2019-02-20T19:36:14.717Z,8.40
2019-02-20T19:38:53.249Z,8.20
2019-02-20T19:41:34.599Z,8.23
2019-02-20T19:44:34.312Z,8.00
2019-02-20T19:47:09.854Z,7.95
2019-02-20T19:49:57.026Z,7.65
2019-02-20T19:52:44.136Z,7.53
2019-02-20T19:55:30.143Z,7.78
2019-02-20T19:58:20.484Z,11.05
2019-02-20T20:01:04.065Z,24.30
2019-02-20T20:03:54.115Z,8.00
2019-02-20T20:06:44.250Z,9.80
2019-02-20T20:09:19.796Z,10.30
2019-02-20T20:12:06.872Z,9.00
2019-02-20T20:14:54.003Z,8.00
2019-02-20T20:17:32.108Z,7.10
2019-02-20T20:20:07.301Z,7.72
2019-02-20T20:23:00.356Z,7.70
2019-02-20T20:25:50.475Z,7.40
2019-02-20T20:28:41.128Z,7.47
2019-02-20T20:31:17.319Z,7.50
2019-02-20T20:34:04.516Z,7.60
2019-02-20T20:37:01.303Z,8.10
2019-02-20T20:39:38.749Z,8.60
2019-02-20T20:42:24.828Z,8.33
2019-02-20T20:45:00.587Z,8.70
2019-02-20T20:47:35.817Z,8.60
2019-02-20T20:50:21.876Z,7.70
2019-02-20T20:52:56.584Z,8.53
2019-02-20T20:55:50.070Z,8.00
2019-02-20T20:58:43.373Z,7.87
2019-02-20T21:01:36.376Z,8.60
2019-02-20T21:04:10.104Z,8.88
2019-02-20T21:06:46.868Z,13.67
2019-02-20T21:09:28.343Z,12.68
2019-02-20T21:12:21.861Z,8.70
2019-02-20T21:15:14.998Z,8.58
2019-02-20T21:17:52.070Z,8.30
2019-02-20T21:20:42.141Z,8.10
2019-02-20T21:23:35.518Z,8.20
2019-02-20T21:26:15.324Z,8.65
2019-02-20T21:29:02.459Z,8.03
2019-02-20T21:31:55.742Z,8.20
2019-02-20T21:34:52.289Z,8.20
2019-02-20T21:37:39.496Z,8.30
2019-02-20T21:40:19.974Z,7.92
2019-02-20T21:42:54.744Z,8.50
2019-02-20T21:45:41.327Z,8.40
2019-02-20T21:48:28.781Z,8.07
2019-02-20T21:51:12.879Z,9.08
2019-02-20T21:53:49.801Z,8.03
2019-02-20T21:56:37.017Z,7.50
2019-02-20T21:59:38.878Z,8.30
2019-02-20T22:02:06.210Z,7.97
2019-02-20T22:04:52.402Z,8.35
2019-02-20T22:07:33.005Z,7.90
2019-02-20T22:10:20.802Z,7.45
2019-02-20T22:13:07.407Z,7.62
2019-02-20T22:15:46.817Z,12.18
2019-02-20T22:18:30.380Z,9.60
2019-02-20T22:21:22.283Z,6.55
2019-02-20T22:24:05.879Z,6.50
2019-02-20T22:26:48.118Z,10.13
2019-02-20T22:29:50.366Z,8.40
2019-02-20T22:32:30.119Z,7.17
2019-02-20T22:35:04.389Z,7.37
2019-02-20T22:37:59.395Z,6.45
2019-02-20T22:40:35.484Z,8.73
2019-02-20T22:43:21.964Z,6.90
2019-02-20T22:46:21.491Z,6.50
2019-02-20T22:48:56.224Z,6.53
2019-02-20T22:51:44.797Z,6.30
2019-02-20T22:54:34.916Z,7.28
2019-02-20T22:57:22.388Z,6.80
2019-02-20T23:00:01.452Z,7.15
2019-02-20T23:02:58.445Z,7.28
2019-02-20T23:05:38.950Z,7.17
2019-02-20T23:08:14.376Z,7.70
2019-02-20T23:11:00.268Z,7.92
2019-02-20T23:13:47.681Z,7.63
2019-02-20T23:16:15.819Z,7.70
2019-02-20T23:18:44.464Z,8.63
2019-02-20T23:21:13.320Z,8.18
2019-02-20T23:23:42.585Z,8.95
2019-02-20T23:26:10.857Z,8.43
2019-02-20T23:28:39.397Z,8.58
2019-02-20T23:31:07.796Z,8.75
2019-02-20T23:33:36.368Z,8.83
2019-02-20T23:36:05.233Z,9.20
2019-02-20T23:38:33.663Z,9.18
2019-02-20T23:41:02.295Z,9.20
2019-02-20T23:43:30.409Z,9.28
2019-02-20T23:45:58.852Z,9.53
2019-02-20T23:48:27.765Z,10.10
2019-02-20T23:50:55.999Z,10.80
2019-02-20T23:53:24.703Z,10.80
2019-02-20T23:55:52.989Z,10.70
2019-02-20T23:58:21.452Z,10.45
